Time;durP1;ratioP1;P1;durP2;ratioP2;P2;SDS_P1;SDS_P2;PMS_P1;PMS_P2;Temp;Humidity;BMP_temperature;BMP_pressure;BME280_temperature;BME280_humidity;BME280_pressure;Samples;Min_cycle;Max_cycle;Signal;HPM_P1;HPM_P2
2022/05/08 00:03:44;;;;;;;0.00;0.00;;;14.00;99.90;;;12.46;78.46;100581.31;10353782;28;96727;-81
2022/05/08 00:08:47;;;;;;;0.00;0.00;;;13.90;99.90;;;12.36;78.56;100578.03;10337348;28;97639;-81
2022/05/08 00:13:50;;;;;;;0.00;0.00;;;13.80;99.90;;;12.24;78.90;100577.53;10319150;28;96600;-81
2022/05/08 00:18:53;;;;;;;0.00;0.00;;;13.70;99.90;;;12.16;79.35;100571.38;10362949;28;97074;-81
2022/05/08 00:23:56;;;;;;;0.20;0.20;;;13.60;99.90;;;12.08;79.62;100561.56;10326052;28;96591;-81
2022/05/08 00:29:04;;;;;;;0.00;0.00;;;13.50;99.90;;;12.02;79.93;100563.09;10333990;28;96468;-81
2022/05/08 00:34:07;;;;;;;0.00;0.00;;;13.50;99.90;;;11.94;80.34;100556.94;10321464;28;97704;-81
2022/05/08 00:39:16;;;;;;;0.00;0.00;;;13.40;99.90;;;11.89;80.57;100546.78;10295189;28;96651;-81
2022/05/08 00:44:19;;;;;;;0.00;0.00;;;13.30;99.90;;;11.87;80.85;100548.75;10350707;28;96473;-81
2022/05/08 00:49:22;;;;;;;0.00;0.00;;;13.30;99.90;;;11.84;81.10;100537.63;10366493;28;97824;-81
2022/05/08 00:54:25;;;;;;;0.07;0.07;;;13.30;99.90;;;11.78;81.12;100536.44;10337582;28;98276;-81
2022/05/08 00:59:29;;;;;;;0.00;0.00;;;13.20;99.90;;;11.76;81.37;100541.13;10330593;28;96684;-81
2022/05/08 01:04:32;;;;;;;0.00;0.00;;;13.20;99.90;;;11.73;81.81;100546.75;10336491;28;97691;-81
2022/05/08 01:09:35;;;;;;;0.00;0.00;;;13.10;99.90;;;11.66;81.87;100543.09;10352941;28;96517;-81
2022/05/08 01:14:37;;;;;;;0.00;0.00;;;13.10;99.90;;;11.59;82.02;100536.78;10333833;28;96727;-81
2022/05/08 01:19:40;;;;;;;0.00;0.00;;;13.10;99.90;;;11.53;82.05;100548.91;10328754;28;97379;-81
2022/05/08 01:24:43;;;;;;;0.00;0.00;;;13.00;99.90;;;11.48;82.45;100538.75;10356494;28;97306;-81
2022/05/08 01:29:46;;;;;;;0.00;0.00;;;12.90;99.90;;;11.45;82.60;100544.41;10380482;28;96572;-80
2022/05/08 01:34:49;;;;;;;0.00;0.00;;;12.90;99.90;;;11.44;82.90;100528.59;10324555;28;97477;-81
2022/05/08 01:39:52;;;;;;;0.00;0.00;;;12.90;99.90;;;11.38;82.66;100527.44;10312483;28;97021;-80
2022/05/08 01:44:55;;;;;;;0.00;0.00;;;12.90;99.90;;;11.35;83.08;100529.63;10315951;28;98668;-80
2022/05/08 01:49:58;;;;;;;0.00;0.00;;;12.80;99.90;;;11.31;83.24;100530.94;10344939;28;96594;-80
2022/05/08 01:55:02;;;;;;;0.00;0.00;;;12.70;99.90;;;11.29;83.53;100536.44;10332653;28;96652;-79
2022/05/08 02:00:06;;;;;;;0.00;0.00;;;12.70;99.90;;;11.32;83.90;100528.09;10341691;28;96682;-79
2022/05/08 02:05:09;;;;;;;0.00;0.00;;;12.70;99.90;;;11.33;84.01;100524.44;10323449;28;96713;-80
2022/05/08 02:10:14;;;;;;;0.00;0.00;;;12.80;99.90;;;11.32;83.99;100532.59;10305374;28;96661;-80
2022/05/08 02:15:17;;;;;;;0.00;0.00;;;12.70;99.90;;;11.28;83.66;100526.78;10335046;28;97111;-80
2022/05/08 02:20:20;;;;;;;0.10;0.10;;;12.70;99.90;;;11.24;83.83;100523.59;10329586;28;96639;-80
2022/05/08 02:25:24;;;;;;;0.00;0.00;;;12.70;99.90;;;11.22;84.08;100522.13;10353849;28;96456;-80
2022/05/08 02:30:27;;;;;;;0.00;0.00;;;12.70;99.90;;;11.20;84.10;100530.25;10301210;28;97038;-80
2022/05/08 02:35:30;;;;;;;0.30;0.13;;;12.70;99.90;;;11.17;83.99;100535.06;10337162;28;96846;-80
2022/05/08 02:40:33;;;;;;;4.60;0.77;;;12.70;99.90;;;11.12;83.92;100538.22;10327706;28;98572;-80
2022/05/08 02:45:36;;;;;;;0.10;0.10;;;12.60;99.90;;;11.07;83.97;100547.69;10337975;28;96713;-80
2022/05/08 02:50:39;;;;;;;0.00;0.00;;;12.50;99.90;;;11.00;84.12;100544.84;10367584;28;96723;-80
2022/05/08 03:01:07;;;;;;;0.55;0.40;;;12.50;99.90;;;10.91;84.07;100551.94;10310186;28;96630;-80
2022/05/08 03:06:13;;;;;;;0.00;0.00;;;12.40;99.90;;;10.86;83.93;100542.81;10365740;28;98216;-80
2022/05/08 03:11:32;;;;;;;0.00;0.00;;;12.40;99.90;;;10.81;83.95;100540.63;10333869;28;97340;-80
2022/05/08 03:16:35;;;;;;;0.00;0.00;;;12.30;99.90;;;10.77;84.18;100541.09;10364629;28;96572;-80
2022/05/08 03:21:38;;;;;;;0.00;0.00;;;12.30;99.90;;;10.73;84.19;100551.22;10345724;28;96809;-80
2022/05/08 03:26:41;;;;;;;0.03;0.03;;;12.30;99.90;;;10.69;84.25;100557.84;10320798;28;96630;-80
2022/05/08 03:31:44;;;;;;;0.00;0.00;;;12.20;99.90;;;10.67;84.53;100551.84;10346171;28;96668;-80
2022/05/08 03:36:46;;;;;;;0.00;0.00;;;12.10;99.90;;;10.64;84.60;100553.03;10328613;28;98421;-80
2022/05/08 03:41:50;;;;;;;0.00;0.00;;;12.10;99.90;;;10.63;84.65;100561.16;10345632;28;96737;-79
2022/05/08 03:46:52;;;;;;;0.50;0.20;;;12.10;99.90;;;10.62;84.86;100568.31;10310051;28;96905;-79
2022/05/08 03:51:55;;;;;;;0.53;0.20;;;12.10;99.90;;;10.62;85.17;100570.97;10373684;28;96635;-80
2022/05/08 03:56:58;;;;;;;0.10;0.10;;;12.10;99.90;;;10.65;85.16;100575.09;10344142;28;97467;-81
2022/05/08 04:02:01;;;;;;;0.00;0.00;;;12.10;99.90;;;10.68;85.47;100585.44;10317605;28;96652;-80
2022/05/08 04:07:04;;;;;;;0.00;0.00;;;12.10;99.90;;;10.70;85.58;100583.44;10335089;28;96541;-80
2022/05/08 04:12:07;;;;;;;0.20;0.20;;;12.20;99.90;;;10.75;85.94;100596.25;10311253;28;96520;-80
2022/05/08 04:17:10;;;;;;;0.00;0.00;;;12.20;99.90;;;10.84;86.36;100593.47;10314256;28;96713;-81
2022/05/08 04:27:38;;;;;;;0.00;0.00;;;12.30;99.90;;;11.18;86.81;100600.56;10322809;28;96795;-80
2022/05/08 04:32:41;;;;;;;0.00;0.00;;;12.50;99.90;;;11.35;86.88;100607.59;10330306;28;96703;-80
2022/05/08 04:37:44;;;;;;;0.00;0.00;;;12.70;99.90;;;11.51;86.69;100607.66;10348953;28;96664;-79
2022/05/08 04:42:46;;;;;;;0.00;0.00;;;12.90;99.90;;;11.66;86.56;100604.31;10310521;28;97016;-80
2022/05/08 04:47:49;;;;;;;0.00;0.00;;;13.00;99.90;;;11.85;86.35;100609.34;10334348;28;98774;-79
2022/05/08 04:52:52;;;;;;;0.00;0.00;;;13.20;99.90;;;12.03;85.91;100612.69;10338770;28;96581;-79
2022/05/08 04:57:55;;;;;;;0.00;0.00;;;13.40;99.90;;;12.22;85.45;100616.00;10334039;28;97712;-79
2022/05/08 05:02:58;;;;;;;0.00;0.00;;;13.50;99.90;;;12.40;85.08;100619.31;10366069;28;96596;-81
2022/05/08 05:08:00;;;;;;;0.00;0.00;;;13.70;99.90;;;12.68;84.85;100624.25;10361249;28;96693;-80
2022/05/08 05:13:03;;;;;;;0.00;0.00;;;13.90;99.90;;;12.98;84.54;100627.97;10343053;28;96607;-79
2022/05/08 05:18:06;;;;;;;0.00;0.00;;;14.20;99.90;;;13.25;83.73;100629.38;10300976;28;98347;-81
2022/05/08 05:23:09;;;;;;;0.00;0.00;;;14.50;99.90;;;13.50;82.56;100636.25;10324472;28;96987;-81
2022/05/08 05:28:12;;;;;;;0.00;0.00;;;14.70;99.90;;;13.71;81.20;100629.44;10353485;28;96625;-81
2022/05/08 05:33:17;;;;;;;0.10;0.10;;;14.90;99.90;;;14.20;80.27;100636.03;10347711;28;97320;-80
2022/05/08 05:38:20;;;;;;;0.00;0.00;;;15.10;99.90;;;14.48;78.65;100634.66;10359852;28;97547;-82
2022/05/08 05:43:24;;;;;;;0.00;0.00;;;15.40;99.90;;;14.70;77.93;100631.94;10317031;28;96863;-82
2022/05/08 05:48:27;;;;;;;0.45;0.45;;;15.60;99.90;;;14.87;77.07;100637.06;10341022;28;97896;-81
2022/05/08 05:53:29;;;;;;;0.00;0.00;;;15.90;99.90;;;15.08;76.44;100630.97;10312973;28;98436;-81
2022/05/08 05:58:32;;;;;;;0.20;0.20;;;16.20;99.90;;;15.26;73.62;100626.88;10326503;28;97553;-81
2022/05/08 06:03:35;;;;;;;0.00;0.00;;;16.40;99.90;;;15.48;72.45;100629.63;10359656;28;96702;-81
2022/05/08 06:08:38;;;;;;;0.00;0.00;;;16.60;99.90;;;15.73;71.06;100620.22;10303184;28;96716;-81
2022/05/08 06:13:41;;;;;;;0.20;0.20;;;16.90;99.90;;;15.97;70.35;100618.16;10324208;28;96582;-81
2022/05/08 06:18:44;;;;;;;0.10;0.10;;;17.10;99.90;;;16.22;69.93;100622.09;10321933;28;97521;-81
2022/05/08 06:23:47;;;;;;;0.10;0.10;;;17.40;99.90;;;16.49;68.64;100628.50;10309444;28;97491;-79
2022/05/08 06:28:50;;;;;;;0.00;0.00;;;17.60;99.90;;;16.75;67.92;100627.84;10325465;28;96717;-82
2022/05/08 06:33:53;;;;;;;0.00;0.00;;;17.90;99.90;;;17.02;67.37;100633.34;10323409;28;96649;-81
2022/05/08 06:38:55;;;;;;;0.00;0.00;;;18.20;99.90;;;17.26;65.24;100623.94;10327540;28;97201;-81
2022/05/08 06:43:58;;;;;;;0.00;0.00;;;18.40;99.90;;;17.49;64.69;100628.97;10320915;28;98833;-81
2022/05/08 06:49:03;;;;;;;0.00;0.00;;;18.70;99.90;;;17.66;64.10;100624.91;10311990;28;98798;-81
2022/05/08 06:54:05;;;;;;;0.17;0.17;;;18.80;99.90;;;17.77;61.40;100626.19;10333371;28;98997;-80
2022/05/08 07:04:30;;;;;;;0.00;0.00;;;19.20;98.10;;;18.07;61.23;100627.47;10297522;28;96757;-79
2022/05/08 07:09:35;;;;;;;0.38;0.15;;;19.30;96.90;;;18.17;59.84;100627.03;10312851;28;96674;-80
2022/05/08 07:14:40;;;;;;;0.00;0.00;;;19.50;95.80;;;18.34;60.20;100622.06;10313373;28;98262;-80
2022/05/08 07:19:43;;;;;;;0.00;0.00;;;19.60;95.60;;;18.53;59.60;100620.38;10320648;28;98242;-80
2022/05/08 07:24:45;;;;;;;0.22;0.22;;;19.80;95.10;;;18.68;57.77;100621.00;10331606;28;96554;-80
2022/05/08 07:29:48;;;;;;;0.13;0.10;;;19.90;92.70;;;18.74;57.11;100632.81;10324115;28;96549;-79
2022/05/08 07:40:13;;;;;;;0.03;0.03;;;20.10;92.40;;;18.93;58.44;100630.03;10299372;28;98542;-79
2022/05/08 07:45:16;;;;;;;0.88;0.68;;;20.20;92.90;;;18.98;55.71;100630.25;10316595;28;96701;-79
2022/05/08 07:50:19;;;;;;;0.00;0.00;;;20.30;91.20;;;19.14;55.44;100622.75;10311924;28;96685;-79
2022/05/08 07:55:22;;;;;;;1.55;0.35;;;20.50;90.70;;;19.30;54.41;100627.63;10313221;28;96781;-79
2022/05/08 08:00:25;;;;;;;0.38;0.38;;;20.60;90.00;;;19.44;55.28;100629.22;10324138;28;97170;-78
2022/05/08 08:05:28;;;;;;;0.10;0.10;;;20.70;89.00;;;19.56;54.44;100633.94;10355164;28;96418;-79
2022/05/08 08:10:31;;;;;;;0.00;0.00;;;20.90;87.30;;;19.81;54.18;100621.34;10321317;28;96719;-79
2022/05/08 08:15:34;;;;;;;0.00;0.00;;;21.10;87.00;;;20.09;53.19;100626.34;10306273;28;96849;-80
2022/05/08 08:20:38;;;;;;;0.47;0.22;;;21.30;83.40;;;20.24;52.78;100629.53;10310680;28;96995;-79
2022/05/08 08:25:43;;;;;;;0.20;0.20;;;21.40;82.80;;;20.39;51.36;100622.94;10330572;28;96582;-79
2022/05/08 08:30:45;;;;;;;1.20;0.28;;;21.60;83.10;;;20.48;51.67;100632.47;10310087;28;98566;-79
2022/05/08 08:35:48;;;;;;;0.00;0.00;;;21.70;81.50;;;20.53;51.22;100630.75;10356032;28;96689;-79
2022/05/08 08:40:53;;;;;;;0.03;0.03;;;21.80;79.40;;;20.56;50.91;100626.75;10329032;28;96861;-79
2022/05/08 08:51:22;;;;;;;0.00;0.00;;;21.90;74.40;;;20.75;49.39;100625.75;10302118;28;97569;-79
2022/05/08 08:56:31;;;;;;;0.00;0.00;;;22.00;76.60;;;20.92;48.62;100631.34;10298565;28;98685;-79
2022/05/08 09:01:41;;;;;;;0.00;0.00;;;22.20;71.50;;;20.84;47.42;100629.78;10322135;28;97499;-79
2022/05/08 09:06:45;;;;;;;0.17;0.17;;;22.20;73.30;;;20.78;46.99;100629.88;10369771;28;96901;-79
2022/05/08 09:11:49;;;;;;;0.00;0.00;;;22.10;70.60;;;20.90;47.82;100627.25;10305168;28;96779;-79
2022/05/08 09:16:56;;;;;;;0.00;0.00;;;22.20;71.90;;;21.05;46.20;100625.81;10297760;28;99418;-80
2022/05/08 09:22:00;;;;;;;0.10;0.10;;;22.30;70.80;;;21.16;46.00;100624.22;10298906;28;96771;-80
2022/05/08 09:27:15;;;;;;;1.00;0.22;;;22.40;67.60;;;21.31;45.89;100627.38;10325591;28;98745;-79
2022/05/08 09:32:41;;;;;;;0.00;0.00;;;22.60;68.90;;;21.48;44.55;100622.19;10298652;28;96786;-80
2022/05/08 09:37:53;;;;;;;0.00;0.00;;;22.80;66.70;;;21.69;44.38;100620.00;10305397;28;96700;-80
2022/05/08 09:42:56;;;;;;;0.47;0.47;;;23.00;66.40;;;22.00;43.94;100603.47;10362712;28;96542;-79
2022/05/08 09:48:02;;;;;;;0.13;0.08;;;23.20;65.80;;;22.42;44.74;100598.00;10359159;28;96651;-79
2022/05/08 09:53:05;;;;;;;0.00;0.00;;;23.60;66.30;;;22.58;43.49;100601.88;10370372;28;96615;-79
2022/05/08 09:58:08;;;;;;;0.52;0.38;;;23.80;63.10;;;22.79;41.26;100600.44;10363101;28;96434;-79
2022/05/08 10:03:11;;;;;;;0.17;0.10;;;24.00;62.00;;;23.02;40.46;100596.88;10358460;28;96656;-79
2022/05/08 10:08:16;;;;;;;0.10;0.10;;;24.30;61.40;;;23.10;41.93;100583.78;10333569;28;96808;-78
2022/05/08 10:13:56;;;;;;;0.25;0.20;;;24.40;61.00;;;23.34;41.92;100570.13;10334356;28;97407;-78
2022/05/08 10:19:19;;;;;;;0.00;0.00;;;24.60;61.10;;;23.42;41.29;100575.16;10352654;28;98343;-79
2022/05/08 10:24:55;;;;;;;0.00;0.00;;;24.80;60.60;;;23.42;39.91;100562.41;10353459;28;98432;-79
2022/05/08 10:29:58;;;;;;;0.00;0.00;;;24.80;58.10;;;23.60;40.75;100564.09;10348101;28;96615;-80
2022/05/08 10:35:25;;;;;;;0.00;0.00;;;24.80;58.90;;;23.97;40.04;100560.94;10322831;28;96721;-79
2022/05/08 10:40:28;;;;;;;0.52;0.43;;;25.20;57.80;;;24.35;39.38;100559.34;10313374;28;96766;-79
2022/05/08 10:45:33;;;;;;;0.00;0.00;;;25.50;57.30;;;24.60;39.69;100550.75;10352728;28;97156;-80
2022/05/08 10:50:46;;;;;;;0.00;0.00;;;25.80;58.00;;;24.83;39.58;100554.03;10358187;28;96633;-79
2022/05/08 10:55:50;;;;;;;0.00;0.00;;;26.10;58.00;;;24.94;37.59;100543.25;10355957;28;96715;-79
2022/05/08 11:00:58;;;;;;;0.00;0.00;;;26.30;55.80;;;24.88;38.01;100538.84;10335699;28;96805;-79
2022/05/08 11:06:03;;;;;;;0.52;0.43;;;26.20;55.80;;;25.27;39.26;100536.84;10358913;28;96983;-81
2022/05/08 11:11:12;;;;;;;0.00;0.00;;;26.50;56.60;;;25.48;37.54;100532.41;10361853;28;96675;-80
2022/05/08 11:16:37;;;;;;;1.50;0.85;;;26.70;56.00;;;25.38;35.96;100516.03;10308051;28;96678;-80
2022/05/08 11:21:41;;;;;;;0.08;0.00;;;26.80;54.10;;;25.61;36.70;100511.06;10289908;28;96857;-81
2022/05/08 11:26:43;;;;;;;0.00;0.00;;;27.00;54.70;;;25.63;36.33;100505.34;10301776;28;98174;-80
2022/05/08 11:36:04;;;;;;;0.00;0.00;;;27.00;53.60;;;25.92;36.05;100505.06;10328808;28;98319;-80
2022/05/08 11:37:19;;;;;;;0.10;0.10;;;27.20;53.70;;;26.26;34.67;100495.44;10336522;28;97097;-80
2022/05/08 11:42:23;;;;;;;0.00;0.00;;;27.40;50.40;;;26.42;34.33;100501.81;10321358;28;97186;-80
2022/05/08 11:47:26;;;;;;;0.00;0.00;;;27.60;51.80;;;26.59;32.44;100494.28;10305950;28;97110;-80
2022/05/08 11:52:30;;;;;;;0.00;0.00;;;27.80;48.10;;;26.30;31.59;100490.28;10335753;28;96686;-80
2022/05/08 11:57:45;;;;;;;0.08;0.08;;;27.60;48.70;;;26.29;31.98;100491.38;10366923;28;96628;-80
2022/05/08 12:02:50;;;;;;;0.10;0.05;;;27.60;48.90;;;26.34;31.54;100486.78;10357146;28;97352;-80
2022/05/08 12:07:53;;;;;;;0.00;0.00;;;27.60;47.30;;;26.29;32.62;100484.03;10335002;28;96846;-80
2022/05/08 12:13:06;;;;;;;0.00;0.00;;;27.50;49.10;;;26.22;32.17;100483.44;10291170;28;97886;-80
2022/05/08 12:18:09;;;;;;;0.00;0.00;;;27.50;48.60;;;26.09;31.81;100484.75;10342906;28;97257;-80
2022/05/08 12:23:15;;;;;;;0.03;0.03;;;27.40;48.30;;;26.13;32.93;100474.13;10336103;28;96623;-80
2022/05/08 12:28:20;;;;;;;0.40;0.10;;;27.40;47.60;;;25.92;32.39;100477.84;10319783;28;96647;-80
2022/05/08 12:33:23;;;;;;;0.10;0.10;;;27.30;48.60;;;25.95;32.84;100469.13;10324438;28;96826;-79
2022/05/08 12:38:26;;;;;;;0.25;0.15;;;27.30;49.00;;;25.94;33.38;100470.22;10345822;28;96637;-80
2022/05/08 12:43:29;;;;;;;0.22;0.13;;;27.20;48.70;;;25.85;32.83;100454.38;10309660;28;98188;-80
2022/05/08 12:48:32;;;;;;;0.10;0.10;;;27.10;48.50;;;25.69;31.33;100454.50;10328439;28;97959;-79
2022/05/08 12:53:35;;;;;;;0.47;0.35;;;27.00;47.90;;;25.51;32.92;100458.44;10344708;28;96686;-79
2022/05/08 13:04:00;;;;;;;0.00;0.00;;;26.60;47.70;;;25.14;32.36;100455.69;10327327;28;97485;-80
2022/05/08 13:09:06;;;;;;;0.52;0.47;;;26.50;47.40;;;24.90;33.17;100455.97;10320451;28;96964;-80
2022/05/08 13:14:09;;;;;;;0.00;0.00;;;26.30;48.20;;;24.99;34.04;100448.16;10341318;28;97618;-79
2022/05/08 13:19:12;;;;;;;0.00;0.00;;;26.30;48.80;;;24.90;31.87;100447.00;10338322;28;97770;-80
2022/05/08 13:24:16;;;;;;;0.00;0.00;;;26.30;46.20;;;24.76;33.25;100447.38;10346642;28;97142;-77
2022/05/08 13:29:18;;;;;;;0.30;0.30;;;26.20;47.40;;;24.76;32.39;100450.09;10317005;28;96757;-79
2022/05/08 13:34:25;;;;;;;0.20;0.20;;;26.20;47.30;;;24.71;32.47;100436.50;10312445;28;96617;-79
2022/05/08 13:39:28;;;;;;;0.08;0.08;;;26.00;46.30;;;24.77;32.11;100438.19;10358940;28;97407;-79
2022/05/08 13:44:32;;;;;;;0.00;0.00;;;26.00;47.30;;;24.87;31.62;100436.63;10301280;28;98123;-79
2022/05/08 13:49:36;;;;;;;0.10;0.10;;;26.20;46.80;;;24.62;36.54;100429.84;10347974;28;96818;-79
2022/05/08 13:54:42;;;;;;;0.20;0.20;;;26.00;51.90;;;24.34;38.03;100438.16;10357652;28;96636;-77
2022/05/08 13:59:45;;;;;;;0.00;0.00;;;25.60;52.80;;;23.96;38.20;100437.97;10348183;28;96671;-80
2022/05/08 14:04:48;;;;;;;0.00;0.00;;;25.20;52.40;;;23.77;38.48;100437.44;10309406;28;96784;-78
2022/05/08 14:09:50;;;;;;;0.10;0.00;;;24.90;53.10;;;23.67;39.48;100431.03;10327445;28;96513;-79
2022/05/08 14:14:54;;;;;;;0.63;0.30;;;24.80;54.60;;;23.52;40.38;100428.88;10329192;28;99103;-79
2022/05/08 14:19:59;;;;;;;0.05;0.05;;;24.50;55.40;;;23.23;41.48;100430.84;10353714;28;96790;-79
2022/05/08 14:25:04;;;;;;;0.25;0.25;;;24.30;56.70;;;23.05;42.67;100426.47;10329473;28;97707;-79
2022/05/08 14:30:11;;;;;;;0.10;0.10;;;24.10;58.30;;;23.00;43.98;100426.38;10329713;28;97932;-79
2022/05/08 14:40:36;;;;;;;0.03;0.03;;;23.90;61.60;;;22.83;45.08;100429.03;10321118;28;96680;-79
2022/05/08 14:45:39;;;;;;;0.15;0.15;;;23.80;60.20;;;22.77;44.59;100431.88;10318544;28;97336;-78
2022/05/08 14:50:42;;;;;;;0.00;0.00;;;23.80;60.20;;;22.73;45.34;100425.31;10358328;28;97725;-78
2022/05/08 14:55:47;;;;;;;0.08;0.08;;;23.70;60.40;;;22.72;44.44;100424.47;10321905;28;96684;-78
2022/05/08 15:00:50;;;;;;;0.38;0.35;;;23.70;59.00;;;22.65;44.23;100430.03;10330163;28;99080;-79
2022/05/08 15:05:53;;;;;;;3.10;0.40;;;23.70;59.30;;;22.63;45.43;100432.19;10335696;28;96523;-79
2022/05/08 15:10:56;;;;;;;0.00;0.00;;;23.70;60.90;;;22.57;45.88;100443.16;10333918;28;96932;-77
2022/05/08 15:15:59;;;;;;;0.00;0.00;;;23.60;61.40;;;22.54;46.65;100444.44;10324423;28;96716;-78
2022/05/08 15:21:02;;;;;;;0.68;0.65;;;23.60;62.60;;;22.44;45.19;100452.38;10334596;28;97973;-78
2022/05/08 15:26:05;;;;;;;0.00;0.00;;;23.50;60.20;;;22.35;45.24;100451.09;10346179;28;96624;-79
2022/05/08 15:31:11;;;;;;;1.77;1.27;;;23.40;60.00;;;22.30;45.53;100442.88;10335820;28;96607;-78
2022/05/08 15:36:14;;;;;;;0.00;0.00;;;23.40;60.30;;;22.22;45.37;100454.09;10330714;28;96741;-78
2022/05/08 15:41:18;;;;;;;0.00;0.00;;;23.30;60.30;;;22.22;45.21;100451.38;10342319;28;97595;-78
2022/05/08 15:46:21;;;;;;;0.00;0.00;;;23.30;59.60;;;22.15;45.25;100457.75;10322708;28;96675;-78
2022/05/08 15:51:23;;;;;;;0.00;0.00;;;23.20;60.20;;;22.10;45.80;100467.63;10354966;28;96781;-78
2022/05/08 15:56:29;;;;;;;0.22;0.20;;;23.20;61.00;;;21.91;44.10;100459.63;10323768;28;98455;-80
2022/05/08 16:01:32;;;;;;;0.00;0.00;;;23.10;59.10;;;21.72;44.35;100462.69;10314378;28;96655;-80
2022/05/08 16:06:36;;;;;;;0.10;0.10;;;23.00;59.10;;;21.67;44.98;100459.84;10323964;28;96686;-80
2022/05/08 16:11:39;;;;;;;0.25;0.25;;;23.00;59.50;;;21.57;44.07;100463.13;10345740;28;97480;-78
2022/05/08 16:27:36;;;;;;;0.00;0.00;;;22.60;58.20;;;21.10;44.33;100463.81;10283321;28;96917;-78
2022/05/08 16:32:39;;;;;;;0.00;0.00;;;22.50;58.50;;;20.95;44.28;100468.84;10298917;28;98196;-79
2022/05/08 16:37:42;;;;;;;0.00;0.00;;;22.30;58.50;;;20.78;43.65;100482.16;10291264;28;97519;-86
2022/05/08 16:42:49;;;;;;;0.08;0.08;;;22.20;57.90;;;20.65;44.02;100481.50;10314248;28;96662;-80
2022/05/08 16:47:56;;;;;;;0.00;0.00;;;22.00;57.80;;;20.53;44.26;100494.94;10325765;28;97454;-80
2022/05/08 16:52:58;;;;;;;0.00;0.00;;;21.90;58.40;;;20.40;44.88;100506.69;10349304;28;96795;-80
2022/05/08 16:58:01;;;;;;;0.00;0.00;;;21.70;58.80;;;20.30;45.55;100509.06;10329288;28;98645;-77
2022/05/08 17:03:04;;;;;;;0.05;0.05;;;21.60;59.40;;;20.15;45.51;100519.38;10316545;28;97064;-77
2022/05/08 17:08:08;;;;;;;0.00;0.00;;;21.40;59.60;;;20.07;46.56;100514.28;10311444;28;96638;-81
2022/05/08 17:13:11;;;;;;;0.00;0.00;;;21.40;61.30;;;19.94;47.22;100532.25;10320802;28;98628;-80
2022/05/08 17:18:14;;;;;;;0.00;0.00;;;21.30;61.60;;;19.84;47.30;100531.09;10339073;28;97480;-80
2022/05/08 17:23:17;;;;;;;0.00;0.00;;;21.10;61.80;;;19.76;47.88;100527.63;10342966;28;97534;-80
2022/05/08 17:33:41;;;;;;;0.00;0.00;;;21.00;62.00;;;19.58;48.16;100540.19;10298697;28;96885;-80
2022/05/08 17:38:45;;;;;;;0.00;0.00;;;20.90;62.10;;;19.46;49.58;100550.84;10289237;28;96629;-80
2022/05/08 17:43:47;;;;;;;0.00;0.00;;;20.80;64.50;;;19.35;50.17;100563.13;10328228;28;97465;-80
2022/05/08 17:48:50;;;;;;;0.00;0.00;;;20.70;65.00;;;19.24;49.01;100569.19;10311656;28;98892;-81
2022/05/08 17:53:53;;;;;;;0.30;0.30;;;20.60;63.60;;;19.16;51.38;100574.84;10326144;28;96468;-80
2022/05/08 17:58:57;;;;;;;0.15;0.10;;;20.50;66.30;;;19.07;51.03;100571.59;10359888;28;96942;-81
2022/05/08 18:09:22;;;;;;;0.00;0.00;;;20.30;66.40;;;18.79;52.05;100592.63;10311982;28;98562;-81
2022/05/08 18:14:25;;;;;;;0.20;0.20;;;20.20;67.20;;;18.65;52.63;100595.31;10324368;28;96940;-80
2022/05/08 18:19:29;;;;;;;0.00;0.00;;;20.00;66.90;;;18.46;54.00;100604.25;10326423;28;96983;-81
2022/05/08 18:24:33;;;;;;;0.00;0.00;;;19.90;69.70;;;18.30;55.30;100607.38;10336267;28;97669;-82
2022/05/08 18:29:36;;;;;;;0.00;0.00;;;19.70;70.40;;;18.10;55.09;100615.44;10299782;28;96631;-80
2022/05/08 18:34:39;;;;;;;0.15;0.15;;;19.50;69.30;;;17.98;56.59;100625.16;10305674;28;96892;-81
2022/05/08 18:39:42;;;;;;;0.35;0.20;;;19.30;71.60;;;17.78;57.34;100639.41;10326228;28;97420;-81
2022/05/08 18:44:44;;;;;;;0.00;0.00;;;19.20;70.70;;;17.66;57.94;100649.91;10333413;28;96566;-81
2022/05/08 18:49:48;;;;;;;0.00;0.00;;;19.10;73.50;;;17.49;58.63;100651.31;10304289;28;96647;-82
2022/05/08 18:54:51;;;;;;;0.00;0.00;;;18.90;74.50;;;17.33;59.13;100655.19;10341732;28;96592;-81
2022/05/08 18:59:56;;;;;;;0.00;0.00;;;18.70;74.90;;;17.22;59.00;100665.69;10327064;28;96657;-81
2022/05/08 19:04:59;;;;;;;0.00;0.00;;;18.60;75.40;;;17.09;59.34;100664.59;10302963;28;97154;-81
2022/05/08 19:10:04;;;;;;;0.00;0.00;;;18.40;74.80;;;17.01;59.85;100666.59;10314962;28;98096;-81
2022/05/08 19:15:08;;;;;;;0.00;0.00;;;18.30;76.80;;;16.90;60.51;100665.28;10320978;28;97603;-82
2022/05/08 19:20:13;;;;;;;0.00;0.00;;;18.20;77.40;;;16.75;60.19;100659.22;10336742;28;96834;-81
2022/05/08 19:25:16;;;;;;;0.10;0.00;;;18.10;77.10;;;16.60;59.97;100654.75;10334121;28;97109;-81
2022/05/08 19:30:19;;;;;;;0.00;0.00;;;18.00;76.40;;;16.52;59.87;100671.00;10319985;28;96708;-84
2022/05/08 19:40:43;;;;;;;0.00;0.00;;;17.70;77.60;;;16.30;60.39;100651.44;10301531;28;97541;-84
2022/05/08 19:45:46;;;;;;;0.10;0.10;;;17.60;77.70;;;16.24;60.41;100649.53;10303732;28;97523;-84
2022/05/08 19:50:49;;;;;;;0.00;0.00;;;17.60;78.20;;;16.19;60.43;100656.50;10310378;28;99389;-83
2022/05/08 19:55:52;;;;;;;0.00;0.00;;;17.50;77.90;;;16.11;60.39;100662.81;10333677;28;97795;-83
2022/05/08 20:00:56;;;;;;;0.05;0.05;;;17.40;78.10;;;16.08;60.92;100657.88;10296576;28;98625;-81
2022/05/08 20:05:59;;;;;;;0.00;0.00;;;17.40;79.30;;;16.04;61.23;100667.31;10328471;28;96672;-81
2022/05/08 20:11:02;;;;;;;0.10;0.10;;;17.40;80.40;;;15.99;61.54;100659.81;10310925;28;96578;-84
2022/05/08 20:16:05;;;;;;;0.00;0.00;;;17.30;80.80;;;15.96;61.78;100664.75;10322542;28;96593;-84
2022/05/08 20:26:30;;;;;;;0.10;0.10;;;17.20;81.80;;;15.88;62.49;100673.72;10335671;28;97329;-80
2022/05/08 20:31:38;;;;;;;0.05;0.05;;;17.10;82.40;;;15.86;62.53;100673.09;10344364;28;96723;-80
2022/05/08 20:36:41;;;;;;;0.00;0.00;;;17.10;82.30;;;15.83;62.69;100676.16;10317706;28;97343;-80
2022/05/08 20:41:46;;;;;;;0.35;0.35;;;17.10;83.60;;;15.79;63.28;100683.75;10335162;28;96549;-81
2022/05/08 20:46:50;;;;;;;0.08;0.00;;;17.10;85.00;;;15.71;63.59;100675.84;10372105;28;97298;-80
2022/05/08 20:51:53;;;;;;;0.00;0.00;;;17.00;85.50;;;15.62;63.84;100673.44;10308421;28;96688;-80
2022/05/08 20:56:57;;;;;;;0.00;0.00;;;16.90;86.30;;;15.52;64.37;100676.41;10301825;28;97621;-80
2022/05/08 21:02:01;;;;;;;0.00;0.00;;;16.80;87.20;;;15.45;64.76;100678.19;10336862;28;96722;-80
2022/05/08 21:12:25;;;;;;;0.00;0.00;;;16.70;89.30;;;15.35;65.21;100683.00;10335815;28;97156;-80
2022/05/08 21:17:28;;;;;;;0.00;0.00;;;16.60;89.90;;;15.26;65.09;100680.44;10339588;28;98867;-80
2022/05/08 21:22:31;;;;;;;0.00;0.00;;;16.60;90.20;;;15.18;65.41;100693.09;10334820;28;96547;-80
2022/05/08 21:27:35;;;;;;;0.00;0.00;;;16.50;90.50;;;15.17;65.26;100688.72;10326827;28;96598;-80
2022/05/08 21:32:38;;;;;;;0.03;0.00;;;16.50;90.20;;;15.12;65.05;100689.31;10312395;28;97242;-80
2022/05/08 21:37:41;;;;;;;0.60;0.20;;;16.50;90.20;;;15.07;65.27;100686.34;10311794;28;96569;-80
2022/05/08 21:42:44;;;;;;;0.00;0.00;;;16.40;90.40;;;15.02;65.40;100694.09;10318916;28;96658;-80
2022/05/08 21:47:47;;;;;;;0.00;0.00;;;16.40;90.40;;;14.95;65.91;100698.53;10317184;28;96719;-80
2022/05/08 21:52:49;;;;;;;0.45;0.22;;;16.40;91.50;;;14.79;66.94;100704.06;10353494;28;96714;-80
2022/05/08 21:57:52;;;;;;;0.00;0.00;;;16.30;92.50;;;14.65;67.45;100709.22;10298144;28;97880;-80
2022/05/08 22:02:56;;;;;;;0.00;0.00;;;16.10;93.30;;;14.54;68.01;100711.50;10342744;28;97518;-80
2022/05/08 22:08:00;;;;;;;0.00;0.00;;;15.90;93.60;;;14.40;68.03;100715.78;10303667;28;97207;-80